Pagrindinis puslapis
METAR-TAF:

METAR-TAF

Oro uostai :

Balikpapanas, Indonezija

platuma: 01-16-06S, ilguma: 116-53-40E, Aukštis: 4 m

Dabartinis oras

Ataskaita buvo paskelbta 26 minutes, ne 01:00 UTC
Vėjas 3 kt iš Vakarų
Temperatūra 27°C
Drėgmė 89%
Slėgis
Matomumas: 9000 m
Mažai debesys ne aukštis 1700 ft, Liūtiniai kamuoliniai debesys.
Išsisklaidę debesys ne aukštis 1700 ft

METAR: WALL 260100Z 26003KT 9000 FEW017CB SCT017 27/25 Q1008RMK CB TO S AND SW

Laikas: 08:26 (01:26 UTC)

Prognozė

Ataskaita buvo paskelbta 2 valandos ir 26 minutes, ne 23:00 UTC
Prognozė galioja nuo 26 metu 00 UTC su 27 metu 06 UTC
Vėjas 6 kt iš Pietų
Matomumas 10 km arba daugiau
Mažai debesys ne aukštis 1800 ft, Liūtiniai kamuoliniai debesys.
Išsisklaidę debesys ne aukštis 1800 ft
Laikinai
nuo 26 metu 00 UTC su 26 metu 03 UTC
Matomumas: 5000 m
lietus
Tapsmas
nuo 26 metu 06 UTC su 26 metu 08 UTC
Vėjas 7 kt iš Rytų

TAF: WALL 252300Z 2600/2706 17006KT 9999 FEW018CB SCT018 TEMPO 2600/2603 5000 -RA BECMG 2606/2608 08007KT

Orai ataskaitas ir orų prognozės (METAR, TAF).

turimą stotys yra geltonos ir raudonos taškus žemėlapyje.

Perkelti pele per norėdami pamatyti stoties vardą.

Tada spustelėkite, norėdami matyti oro stebėjimo ir prognozės.

Norėdami pakeisti žemėlapį: spustelėkite ant žalios mygtukų su juodo kryžiaus žemyn,; žalią mygtuką su brūkšneliu, jei norite nutolinti; arba žalių rodyklių gretimoms žemėlapius.


METAR-TAF: